sensor_id;sensor_type;location;lat;lon;timestamp;P1;durP1;ratioP1;P2;durP2;ratioP2
1400;SDS011;46518;48.842;8.926;2022-08-24T00:00:39;5.20;;;4.70;;
1400;SDS011;46518;48.842;8.926;2022-08-24T00:03:07;5.50;;;4.90;;
1400;SDS011;46518;48.842;8.926;2022-08-24T00:05:37;5.55;;;5.15;;
1400;SDS011;46518;48.842;8.926;2022-08-24T00:08:06;6.82;;;6.07;;
1400;SDS011;46518;48.842;8.926;2022-08-24T00:10:34;4.93;;;4.53;;
1400;SDS011;46518;48.842;8.926;2022-08-24T00:13:04;6.20;;;5.70;;
1400;SDS011;46518;48.842;8.926;2022-08-24T00:15:32;6.55;;;5.00;;
1400;SDS011;46518;48.842;8.926;2022-08-24T00:18:01;5.40;;;5.00;;
1400;SDS011;46518;48.842;8.926;2022-08-24T00:20:30;6.13;;;5.63;;
1400;SDS011;46518;48.842;8.926;2022-08-24T00:22:59;5.25;;;4.85;;
1400;SDS011;46518;48.842;8.926;2022-08-24T00:25:27;5.43;;;5.00;;
1400;SDS011;46518;48.842;8.926;2022-08-24T00:27:57;5.43;;;5.03;;
1400;SDS011;46518;48.842;8.926;2022-08-24T00:30:27;6.95;;;5.38;;
1400;SDS011;46518;48.842;8.926;2022-08-24T00:32:55;5.15;;;4.57;;
1400;SDS011;46518;48.842;8.926;2022-08-24T00:35:23;4.55;;;4.25;;
1400;SDS011;46518;48.842;8.926;2022-08-24T00:37:52;5.57;;;5.10;;
1400;SDS011;46518;48.842;8.926;2022-08-24T00:40:22;7.57;;;5.38;;
1400;SDS011;46518;48.842;8.926;2022-08-24T00:42:52;5.35;;;4.85;;
1400;SDS011;46518;48.842;8.926;2022-08-24T00:45:22;4.83;;;4.43;;
1400;SDS011;46518;48.842;8.926;2022-08-24T00:47:53;4.93;;;4.47;;
1400;SDS011;46518;48.842;8.926;2022-08-24T00:50:26;5.53;;;5.10;;
1400;SDS011;46518;48.842;8.926;2022-08-24T00:53:01;5.33;;;4.93;;
1400;SDS011;46518;48.842;8.926;2022-08-24T00:55:34;5.73;;;5.23;;
1400;SDS011;46518;48.842;8.926;2022-08-24T00:58:08;5.20;;;4.78;;
1400;SDS011;46518;48.842;8.926;2022-08-24T01:00:45;5.47;;;4.78;;
1400;SDS011;46518;48.842;8.926;2022-08-24T01:03:18;6.30;;;5.70;;
1400;SDS011;46518;48.842;8.926;2022-08-24T01:05:47;6.90;;;5.17;;
1400;SDS011;46518;48.842;8.926;2022-08-24T01:08:16;5.40;;;4.90;;
1400;SDS011;46518;48.842;8.926;2022-08-24T01:10:49;5.07;;;4.63;;
1400;SDS011;46518;48.842;8.926;2022-08-24T01:13:20;7.37;;;4.67;;
1400;SDS011;46518;48.842;8.926;2022-08-24T01:15:51;4.60;;;4.30;;
1400;SDS011;46518;48.842;8.926;2022-08-24T01:18:23;5.47;;;5.07;;
1400;SDS011;46518;48.842;8.926;2022-08-24T01:21:20;6.47;;;5.07;;
1400;SDS011;46518;48.842;8.926;2022-08-24T01:23:53;4.65;;;4.35;;
1400;SDS011;46518;48.842;8.926;2022-08-24T01:26:24;5.90;;;5.40;;
1400;SDS011;46518;48.842;8.926;2022-08-24T01:28:58;5.73;;;5.23;;
1400;SDS011;46518;48.842;8.926;2022-08-24T01:31:31;4.93;;;4.43;;
1400;SDS011;46518;48.842;8.926;2022-08-24T01:34:00;4.18;;;3.83;;
1400;SDS011;46518;48.842;8.926;2022-08-24T01:36:32;4.80;;;4.43;;
1400;SDS011;46518;48.842;8.926;2022-08-24T01:39:11;6.10;;;4.87;;
1400;SDS011;46518;48.842;8.926;2022-08-24T01:41:42;6.20;;;5.70;;
1400;SDS011;46518;48.842;8.926;2022-08-24T01:44:11;5.53;;;4.57;;
1400;SDS011;46518;48.842;8.926;2022-08-24T01:46:41;6.50;;;5.47;;
1400;SDS011;46518;48.842;8.926;2022-08-24T01:49:11;4.00;;;3.80;;
1400;SDS011;46518;48.842;8.926;2022-08-24T01:51:40;5.18;;;4.68;;
1400;SDS011;46518;48.842;8.926;2022-08-24T01:54:11;4.90;;;4.60;;
1400;SDS011;46518;48.842;8.926;2022-08-24T01:56:40;5.03;;;4.63;;
1400;SDS011;46518;48.842;8.926;2022-08-24T01:59:09;5.22;;;4.70;;
1400;SDS011;46518;48.842;8.926;2022-08-24T02:01:41;6.67;;;4.90;;
1400;SDS011;46518;48.842;8.926;2022-08-24T02:04:13;4.40;;;4.10;;
1400;SDS011;46518;48.842;8.926;2022-08-24T02:06:46;4.30;;;4.00;;
1400;SDS011;46518;48.842;8.926;2022-08-24T02:09:17;4.73;;;4.23;;
1400;SDS011;46518;48.842;8.926;2022-08-24T02:11:45;4.53;;;4.23;;
1400;SDS011;46518;48.842;8.926;2022-08-24T02:14:14;5.53;;;5.10;;
1400;SDS011;46518;48.842;8.926;2022-08-24T02:16:45;5.13;;;4.77;;
1400;SDS011;46518;48.842;8.926;2022-08-24T02:19:20;5.30;;;4.90;;
1400;SDS011;46518;48.842;8.926;2022-08-24T02:21:49;4.80;;;4.50;;
1400;SDS011;46518;48.842;8.926;2022-08-24T02:24:19;5.10;;;4.80;;
1400;SDS011;46518;48.842;8.926;2022-08-24T02:26:48;4.90;;;4.50;;
1400;SDS011;46518;48.842;8.926;2022-08-24T02:29:17;5.40;;;4.40;;
1400;SDS011;46518;48.842;8.926;2022-08-24T02:31:45;4.72;;;4.25;;
1400;SDS011;46518;48.842;8.926;2022-08-24T02:34:13;5.10;;;4.60;;
1400;SDS011;46518;48.842;8.926;2022-08-24T02:36:42;5.18;;;4.65;;
1400;SDS011;46518;48.842;8.926;2022-08-24T02:39:11;5.68;;;5.18;;
1400;SDS011;46518;48.842;8.926;2022-08-24T02:41:43;4.85;;;4.55;;
1400;SDS011;46518;48.842;8.926;2022-08-24T02:44:11;5.90;;;5.30;;
1400;SDS011;46518;48.842;8.926;2022-08-24T02:46:40;6.00;;;4.93;;
1400;SDS011;46518;48.842;8.926;2022-08-24T02:49:10;4.45;;;4.13;;
1400;SDS011;46518;48.842;8.926;2022-08-24T02:51:40;5.28;;;4.88;;
1400;SDS011;46518;48.842;8.926;2022-08-24T02:54:18;5.22;;;4.85;;
1400;SDS011;46518;48.842;8.926;2022-08-24T02:56:51;5.70;;;5.28;;
1400;SDS011;46518;48.842;8.926;2022-08-24T02:59:20;5.50;;;5.10;;
1400;SDS011;46518;48.842;8.926;2022-08-24T03:01:49;6.00;;;5.53;;
1400;SDS011;46518;48.842;8.926;2022-08-24T03:04:19;5.03;;;4.63;;
1400;SDS011;46518;48.842;8.926;2022-08-24T03:06:47;6.00;;;5.60;;
1400;SDS011;46518;48.842;8.926;2022-08-24T03:09:16;5.80;;;5.30;;
1400;SDS011;46518;48.842;8.926;2022-08-24T03:11:44;4.63;;;4.35;;
1400;SDS011;46518;48.842;8.926;2022-08-24T03:14:16;6.00;;;5.50;;
1400;SDS011;46518;48.842;8.926;2022-08-24T03:16:44;5.80;;;5.40;;
1400;SDS011;46518;48.842;8.926;2022-08-24T03:19:13;6.40;;;5.88;;
1400;SDS011;46518;48.842;8.926;2022-08-24T03:21:43;5.60;;;5.10;;
1400;SDS011;46518;48.842;8.926;2022-08-24T03:24:12;5.82;;;5.43;;
1400;SDS011;46518;48.842;8.926;2022-08-24T03:26:40;6.28;;;5.28;;
1400;SDS011;46518;48.842;8.926;2022-08-24T03:29:11;5.60;;;5.18;;
1400;SDS011;46518;48.842;8.926;2022-08-24T03:31:43;5.65;;;5.35;;
1400;SDS011;46518;48.842;8.926;2022-08-24T03:34:12;6.10;;;5.53;;
1400;SDS011;46518;48.842;8.926;2022-08-24T03:36:41;5.95;;;5.55;;
1400;SDS011;46518;48.842;8.926;2022-08-24T03:39:13;6.22;;;5.70;;
1400;SDS011;46518;48.842;8.926;2022-08-24T03:41:44;6.05;;;5.55;;
1400;SDS011;46518;48.842;8.926;2022-08-24T03:44:12;5.13;;;4.72;;
1400;SDS011;46518;48.842;8.926;2022-08-24T03:46:42;5.53;;;5.03;;
1400;SDS011;46518;48.842;8.926;2022-08-24T03:49:12;5.93;;;5.43;;
1400;SDS011;46518;48.842;8.926;2022-08-24T03:51:40;5.55;;;5.18;;
1400;SDS011;46518;48.842;8.926;2022-08-24T03:54:09;5.93;;;5.43;;
1400;SDS011;46518;48.842;8.926;2022-08-24T03:56:39;6.45;;;5.88;;
1400;SDS011;46518;48.842;8.926;2022-08-24T03:59:08;6.15;;;5.65;;
1400;SDS011;46518;48.842;8.926;2022-08-24T04:01:40;6.13;;;5.63;;
1400;SDS011;46518;48.842;8.926;2022-08-24T04:04:10;5.13;;;4.72;;
1400;SDS011;46518;48.842;8.926;2022-08-24T04:06:38;5.72;;;5.22;;
1400;SDS011;46518;48.842;8.926;2022-08-24T04:09:10;7.50;;;5.45;;
1400;SDS011;46518;48.842;8.926;2022-08-24T04:11:41;6.60;;;6.10;;
1400;SDS011;46518;48.842;8.926;2022-08-24T04:14:13;6.47;;;5.97;;
1400;SDS011;46518;48.842;8.926;2022-08-24T04:16:59;6.88;;;6.22;;
1400;SDS011;46518;48.842;8.926;2022-08-24T04:19:32;5.57;;;5.18;;
1400;SDS011;46518;48.842;8.926;2022-08-24T04:22:01;6.13;;;5.70;;
1400;SDS011;46518;48.842;8.926;2022-08-24T04:24:29;6.05;;;5.55;;
1400;SDS011;46518;48.842;8.926;2022-08-24T04:26:57;6.80;;;6.20;;
1400;SDS011;46518;48.842;8.926;2022-08-24T04:29:26;6.38;;;5.75;;
1400;SDS011;46518;48.842;8.926;2022-08-24T04:31:54;6.88;;;6.38;;
1400;SDS011;46518;48.842;8.926;2022-08-24T04:34:26;6.30;;;5.80;;
1400;SDS011;46518;48.842;8.926;2022-08-24T04:36:56;6.68;;;6.18;;
1400;SDS011;46518;48.842;8.926;2022-08-24T04:39:25;6.20;;;5.65;;
1400;SDS011;46518;48.842;8.926;2022-08-24T04:42:03;6.00;;;5.45;;
1400;SDS011;46518;48.842;8.926;2022-08-24T04:44:36;6.60;;;6.00;;
1400;SDS011;46518;48.842;8.926;2022-08-24T04:47:04;6.40;;;5.90;;
1400;SDS011;46518;48.842;8.926;2022-08-24T04:49:37;7.00;;;6.30;;
1400;SDS011;46518;48.842;8.926;2022-08-24T04:52:05;6.25;;;5.75;;
1400;SDS011;46518;48.842;8.926;2022-08-24T04:54:35;7.20;;;5.65;;
1400;SDS011;46518;48.842;8.926;2022-08-24T04:57:08;5.78;;;5.38;;
1400;SDS011;46518;48.842;8.926;2022-08-24T04:59:42;6.32;;;5.82;;
1400;SDS011;46518;48.842;8.926;2022-08-24T05:02:11;6.43;;;5.93;;
1400;SDS011;46518;48.842;8.926;2022-08-24T05:04:41;8.27;;;7.30;;
1400;SDS011;46518;48.842;8.926;2022-08-24T05:07:09;6.95;;;5.93;;
1400;SDS011;46518;48.842;8.926;2022-08-24T05:09:40;6.38;;;5.78;;
1400;SDS011;46518;48.842;8.926;2022-08-24T05:12:08;6.00;;;5.60;;
1400;SDS011;46518;48.842;8.926;2022-08-24T05:14:41;6.47;;;5.88;;
1400;SDS011;46518;48.842;8.926;2022-08-24T05:17:09;6.35;;;5.85;;
1400;SDS011;46518;48.842;8.926;2022-08-24T05:19:38;5.88;;;5.47;;
1400;SDS011;46518;48.842;8.926;2022-08-24T05:22:09;7.35;;;6.75;;
1400;SDS011;46518;48.842;8.926;2022-08-24T05:24:43;7.70;;;6.70;;
1400;SDS011;46518;48.842;8.926;2022-08-24T05:27:12;6.80;;;5.57;;
1400;SDS011;46518;48.842;8.926;2022-08-24T05:29:42;7.43;;;6.72;;
1400;SDS011;46518;48.842;8.926;2022-08-24T05:32:11;6.65;;;6.15;;
1400;SDS011;46518;48.842;8.926;2022-08-24T05:34:41;6.80;;;6.30;;
1400;SDS011;46518;48.842;8.926;2022-08-24T05:37:10;6.05;;;5.55;;
1400;SDS011;46518;48.842;8.926;2022-08-24T05:40:11;6.20;;;5.30;;
1400;SDS011;46518;48.842;8.926;2022-08-24T05:42:44;6.78;;;6.20;;
1400;SDS011;46518;48.842;8.926;2022-08-24T05:45:14;6.55;;;5.97;;
1400;SDS011;46518;48.842;8.926;2022-08-24T05:47:43;6.75;;;6.15;;
1400;SDS011;46518;48.842;8.926;2022-08-24T05:50:35;6.38;;;5.35;;
1400;SDS011;46518;48.842;8.926;2022-08-24T05:53:04;8.23;;;6.13;;
1400;SDS011;46518;48.842;8.926;2022-08-24T05:55:35;6.53;;;5.80;;
1400;SDS011;46518;48.842;8.926;2022-08-24T05:58:04;9.30;;;7.53;;
1400;SDS011;46518;48.842;8.926;2022-08-24T06:00:36;6.25;;;5.65;;
1400;SDS011;46518;48.842;8.926;2022-08-24T06:03:04;6.97;;;6.13;;
1400;SDS011;46518;48.842;8.926;2022-08-24T06:05:44;6.95;;;6.25;;
1400;SDS011;46518;48.842;8.926;2022-08-24T06:08:14;6.25;;;5.75;;
1400;SDS011;46518;48.842;8.926;2022-08-24T06:10:43;6.30;;;5.80;;
1400;SDS011;46518;48.842;8.926;2022-08-24T06:13:14;9.32;;;6.72;;
1400;SDS011;46518;48.842;8.926;2022-08-24T06:15:43;5.78;;;5.22;;
1400;SDS011;46518;48.842;8.926;2022-08-24T06:18:31;5.82;;;5.32;;
1400;SDS011;46518;48.842;8.926;2022-08-24T06:21:05;6.03;;;5.53;;
1400;SDS011;46518;48.842;8.926;2022-08-24T06:23:38;5.65;;;5.25;;
1400;SDS011;46518;48.842;8.926;2022-08-24T06:26:07;7.05;;;5.88;;
1400;SDS011;46518;48.842;8.926;2022-08-24T06:28:54;5.43;;;5.03;;
1400;SDS011;46518;48.842;8.926;2022-08-24T06:31:23;6.20;;;5.60;;
1400;SDS011;46518;48.842;8.926;2022-08-24T06:33:53;6.77;;;5.30;;
1400;SDS011;46518;48.842;8.926;2022-08-24T06:36:23;5.72;;;5.13;;
1400;SDS011;46518;48.842;8.926;2022-08-24T06:38:51;10.53;;;6.17;;
1400;SDS011;46518;48.842;8.926;2022-08-24T06:41:20;6.83;;;5.03;;
1400;SDS011;46518;48.842;8.926;2022-08-24T06:43:49;6.97;;;5.97;;
1400;SDS011;46518;48.842;8.926;2022-08-24T06:46:23;6.37;;;5.70;;
1400;SDS011;46518;48.842;8.926;2022-08-24T06:48:58;4.77;;;4.47;;
1400;SDS011;46518;48.842;8.926;2022-08-24T06:51:28;4.70;;;4.30;;
1400;SDS011;46518;48.842;8.926;2022-08-24T06:53:58;5.80;;;5.30;;
1400;SDS011;46518;48.842;8.926;2022-08-24T06:56:28;4.73;;;4.33;;
1400;SDS011;46518;48.842;8.926;2022-08-24T06:58:58;4.77;;;4.47;;
1400;SDS011;46518;48.842;8.926;2022-08-24T07:01:29;5.10;;;4.60;;
1400;SDS011;46518;48.842;8.926;2022-08-24T07:03:59;6.03;;;5.50;;
1400;SDS011;46518;48.842;8.926;2022-08-24T07:07:04;5.20;;;4.80;;
1400;SDS011;46518;48.842;8.926;2022-08-24T07:09:32;6.10;;;5.50;;
1400;SDS011;46518;48.842;8.926;2022-08-24T07:12:01;4.87;;;4.20;;
1400;SDS011;46518;48.842;8.926;2022-08-24T07:14:30;6.03;;;5.37;;
1400;SDS011;46518;48.842;8.926;2022-08-24T07:17:00;5.37;;;4.90;;
1400;SDS011;46518;48.842;8.926;2022-08-24T07:19:30;4.70;;;4.40;;
1400;SDS011;46518;48.842;8.926;2022-08-24T07:21:58;5.10;;;4.57;;
1400;SDS011;46518;48.842;8.926;2022-08-24T07:24:28;4.97;;;4.57;;
1400;SDS011;46518;48.842;8.926;2022-08-24T07:26:56;4.43;;;4.13;;
1400;SDS011;46518;48.842;8.926;2022-08-24T07:29:24;4.33;;;4.03;;
1400;SDS011;46518;48.842;8.926;2022-08-24T07:32:14;5.30;;;4.10;;
1400;SDS011;46518;48.842;8.926;2022-08-24T07:34:44;4.40;;;3.90;;
1400;SDS011;46518;48.842;8.926;2022-08-24T07:37:12;5.40;;;5.00;;
1400;SDS011;46518;48.842;8.926;2022-08-24T07:39:46;4.23;;;3.93;;
1400;SDS011;46518;48.842;8.926;2022-08-24T07:42:16;5.40;;;4.17;;
1400;SDS011;46518;48.842;8.926;2022-08-24T07:44:57;4.23;;;3.83;;
1400;SDS011;46518;48.842;8.926;2022-08-24T07:47:26;5.00;;;4.60;;
1400;SDS011;46518;48.842;8.926;2022-08-24T07:50:34;4.40;;;4.00;;
1400;SDS011;46518;48.842;8.926;2022-08-24T07:53:04;7.00;;;4.77;;
1400;SDS011;46518;48.842;8.926;2022-08-24T07:55:39;8.20;;;4.90;;
1400;SDS011;46518;48.842;8.926;2022-08-24T07:58:12;5.03;;;4.07;;
1400;SDS011;46518;48.842;8.926;2022-08-24T08:00:44;7.33;;;3.77;;
1400;SDS011;46518;48.842;8.926;2022-08-24T08:03:13;6.20;;;4.33;;
1400;SDS011;46518;48.842;8.926;2022-08-24T08:05:43;9.47;;;4.57;;
1400;SDS011;46518;48.842;8.926;2022-08-24T08:08:11;5.67;;;4.50;;
1400;SDS011;46518;48.842;8.926;2022-08-24T08:10:41;5.10;;;4.37;;
1400;SDS011;46518;48.842;8.926;2022-08-24T08:13:09;4.83;;;4.40;;
1400;SDS011;46518;48.842;8.926;2022-08-24T08:15:37;4.57;;;4.17;;
1400;SDS011;46518;48.842;8.926;2022-08-24T08:18:08;5.23;;;4.40;;
1400;SDS011;46518;48.842;8.926;2022-08-24T08:20:39;4.73;;;4.20;;
1400;SDS011;46518;48.842;8.926;2022-08-24T08:23:10;4.83;;;4.33;;
1400;SDS011;46518;48.842;8.926;2022-08-24T08:26:14;5.20;;;4.83;;
1400;SDS011;46518;48.842;8.926;2022-08-24T08:28:57;4.63;;;3.60;;
1400;SDS011;46518;48.842;8.926;2022-08-24T08:31:26;3.83;;;3.63;;
1400;SDS011;46518;48.842;8.926;2022-08-24T08:33:54;3.83;;;3.53;;
1400;SDS011;46518;48.842;8.926;2022-08-24T08:36:22;3.53;;;3.23;;
1400;SDS011;46518;48.842;8.926;2022-08-24T08:38:52;6.80;;;3.97;;
1400;SDS011;46518;48.842;8.926;2022-08-24T08:41:35;3.43;;;3.20;;
1400;SDS011;46518;48.842;8.926;2022-08-24T08:44:32;4.67;;;4.27;;
1400;SDS011;46518;48.842;8.926;2022-08-24T08:47:15;4.07;;;3.70;;
1400;SDS011;46518;48.842;8.926;2022-08-24T08:50:05;4.40;;;4.00;;
1400;SDS011;46518;48.842;8.926;2022-08-24T08:52:48;4.93;;;4.07;;
1400;SDS011;46518;48.842;8.926;2022-08-24T08:55:37;3.97;;;3.67;;
1400;SDS011;46518;48.842;8.926;2022-08-24T08:58:13;4.73;;;4.33;;
1400;SDS011;46518;48.842;8.926;2022-08-24T09:00:54;4.53;;;4.13;;
1400;SDS011;46518;48.842;8.926;2022-08-24T09:03:36;4.40;;;3.77;;
1400;SDS011;46518;48.842;8.926;2022-08-24T09:10:09;5.63;;;3.93;;
1400;SDS011;46518;48.842;8.926;2022-08-24T09:12:52;4.53;;;3.23;;
1400;SDS011;46518;48.842;8.926;2022-08-24T09:15:44;4.53;;;3.37;;
1400;SDS011;46518;48.842;8.926;2022-08-24T09:18:42;3.70;;;3.23;;
1400;SDS011;46518;48.842;8.926;2022-08-24T09:21:26;3.10;;;2.80;;
1400;SDS011;46518;48.842;8.926;2022-08-24T09:24:13;3.40;;;3.10;;
1400;SDS011;46518;48.842;8.926;2022-08-24T09:27:09;3.83;;;2.97;;
1400;SDS011;46518;48.842;8.926;2022-08-24T09:29:55;4.30;;;2.73;;
1400;SDS011;46518;48.842;8.926;2022-08-24T09:32:35;2.87;;;2.67;;
1400;SDS011;46518;48.842;8.926;2022-08-24T09:35:16;3.33;;;3.03;;
1400;SDS011;46518;48.842;8.926;2022-08-24T09:37:57;3.57;;;3.27;;
1400;SDS011;46518;48.842;8.926;2022-08-24T09:40:41;3.07;;;2.87;;
1400;SDS011;46518;48.842;8.926;2022-08-24T09:43:41;2.80;;;2.60;;
1400;SDS011;46518;48.842;8.926;2022-08-24T09:46:34;2.50;;;2.30;;
1400;SDS011;46518;48.842;8.926;2022-08-24T09:49:46;2.70;;;2.50;;
1400;SDS011;46518;48.842;8.926;2022-08-24T10:01:27;2.60;;;2.40;;
1400;SDS011;46518;48.842;8.926;2022-08-24T10:04:06;2.40;;;2.30;;
1400;SDS011;46518;48.842;8.926;2022-08-24T10:06:46;3.10;;;2.70;;
1400;SDS011;46518;48.842;8.926;2022-08-24T10:09:35;3.47;;;2.53;;
1400;SDS011;46518;48.842;8.926;2022-08-24T10:12:18;2.70;;;2.10;;
1400;SDS011;46518;48.842;8.926;2022-08-24T10:15:02;3.10;;;2.80;;
1400;SDS011;46518;48.842;8.926;2022-08-24T10:17:38;2.93;;;2.63;;
1400;SDS011;46518;48.842;8.926;2022-08-24T10:20:38;2.80;;;2.40;;
1400;SDS011;46518;48.842;8.926;2022-08-24T10:23:27;4.13;;;2.80;;
1400;SDS011;46518;48.842;8.926;2022-08-24T10:26:13;2.93;;;2.67;;
1400;SDS011;46518;48.842;8.926;2022-08-24T10:28:53;3.23;;;2.90;;
1400;SDS011;46518;48.842;8.926;2022-08-24T10:31:37;5.57;;;2.83;;
1400;SDS011;46518;48.842;8.926;2022-08-24T10:34:19;2.63;;;2.43;;
1400;SDS011;46518;48.842;8.926;2022-08-24T10:37:18;2.63;;;2.33;;
1400;SDS011;46518;48.842;8.926;2022-08-24T10:43:09;3.40;;;2.63;;
1400;SDS011;46518;48.842;8.926;2022-08-24T10:46:09;3.17;;;2.87;;
1400;SDS011;46518;48.842;8.926;2022-08-24T10:49:06;3.07;;;2.70;;
1400;SDS011;46518;48.842;8.926;2022-08-24T10:52:23;3.13;;;2.90;;
1400;SDS011;46518;48.842;8.926;2022-08-24T10:55:15;3.30;;;3.00;;
1400;SDS011;46518;48.842;8.926;2022-08-24T10:57:54;2.60;;;2.40;;
1400;SDS011;46518;48.842;8.926;2022-08-24T11:00:37;3.90;;;3.20;;
1400;SDS011;46518;48.842;8.926;2022-08-24T11:03:08;3.53;;;3.20;;
1400;SDS011;46518;48.842;8.926;2022-08-24T11:05:42;3.40;;;3.10;;
1400;SDS011;46518;48.842;8.926;2022-08-24T11:08:17;4.13;;;2.80;;
1400;SDS011;46518;48.842;8.926;2022-08-24T11:11:02;3.40;;;3.10;;
1400;SDS011;46518;48.842;8.926;2022-08-24T11:13:34;3.10;;;2.90;;
1400;SDS011;46518;48.842;8.926;2022-08-24T11:16:05;3.47;;;3.17;;
1400;SDS011;46518;48.842;8.926;2022-08-24T11:18:44;3.33;;;3.13;;
1400;SDS011;46518;48.842;8.926;2022-08-24T11:21:19;3.37;;;2.90;;
1400;SDS011;46518;48.842;8.926;2022-08-24T11:24:01;3.57;;;3.37;;
1400;SDS011;46518;48.842;8.926;2022-08-24T11:26:30;3.60;;;3.30;;
1400;SDS011;46518;48.842;8.926;2022-08-24T11:29:20;2.80;;;2.60;;
1400;SDS011;46518;48.842;8.926;2022-08-24T11:31:53;3.00;;;2.80;;
1400;SDS011;46518;48.842;8.926;2022-08-24T11:34:29;3.23;;;2.93;;
1400;SDS011;46518;48.842;8.926;2022-08-24T11:36:59;3.50;;;3.30;;
1400;SDS011;46518;48.842;8.926;2022-08-24T11:39:29;3.20;;;2.90;;
1400;SDS011;46518;48.842;8.926;2022-08-24T11:42:03;3.83;;;2.80;;
1400;SDS011;46518;48.842;8.926;2022-08-24T11:44:41;3.60;;;3.40;;
1400;SDS011;46518;48.842;8.926;2022-08-24T11:47:23;3.67;;;2.93;;
1400;SDS011;46518;48.842;8.926;2022-08-24T11:50:05;3.30;;;2.87;;
1400;SDS011;46518;48.842;8.926;2022-08-24T11:52:46;3.37;;;3.00;;
1400;SDS011;46518;48.842;8.926;2022-08-24T11:55:39;3.23;;;2.87;;
1400;SDS011;46518;48.842;8.926;2022-08-24T11:58:22;3.00;;;2.80;;
1400;SDS011;46518;48.842;8.926;2022-08-24T12:01:05;2.93;;;2.73;;
1400;SDS011;46518;48.842;8.926;2022-08-24T12:03:42;4.20;;;3.33;;
1400;SDS011;46518;48.842;8.926;2022-08-24T12:06:24;3.10;;;2.80;;
1400;SDS011;46518;48.842;8.926;2022-08-24T12:09:00;2.83;;;2.63;;
1400;SDS011;46518;48.842;8.926;2022-08-24T12:11:35;2.63;;;2.53;;
1400;SDS011;46518;48.842;8.926;2022-08-24T12:14:13;2.43;;;2.30;;
1400;SDS011;46518;48.842;8.926;2022-08-24T12:16:50;2.93;;;2.67;;
1400;SDS011;46518;48.842;8.926;2022-08-24T12:19:25;2.67;;;2.47;;
1400;SDS011;46518;48.842;8.926;2022-08-24T12:21:57;2.60;;;2.40;;
1400;SDS011;46518;48.842;8.926;2022-08-24T12:24:31;2.83;;;2.63;;
1400;SDS011;46518;48.842;8.926;2022-08-24T12:27:03;2.43;;;2.30;;
1400;SDS011;46518;48.842;8.926;2022-08-24T12:29:38;2.43;;;2.23;;
1400;SDS011;46518;48.842;8.926;2022-08-24T12:32:12;2.90;;;2.43;;
1400;SDS011;46518;48.842;8.926;2022-08-24T12:34:47;2.67;;;2.27;;
1400;SDS011;46518;48.842;8.926;2022-08-24T12:37:25;2.47;;;2.27;;
1400;SDS011;46518;48.842;8.926;2022-08-24T12:39:59;3.20;;;2.90;;
1400;SDS011;46518;48.842;8.926;2022-08-24T12:42:38;3.30;;;3.00;;
1400;SDS011;46518;48.842;8.926;2022-08-24T12:45:16;3.60;;;3.00;;
1400;SDS011;46518;48.842;8.926;2022-08-24T12:47:47;3.03;;;2.83;;
1400;SDS011;46518;48.842;8.926;2022-08-24T12:50:22;2.77;;;2.40;;
1400;SDS011;46518;48.842;8.926;2022-08-24T12:59:11;2.90;;;2.33;;
1400;SDS011;46518;48.842;8.926;2022-08-24T13:01:55;2.90;;;2.60;;
1400;SDS011;46518;48.842;8.926;2022-08-24T13:04:33;2.50;;;2.30;;
1400;SDS011;46518;48.842;8.926;2022-08-24T13:07:08;2.63;;;2.43;;
1400;SDS011;46518;48.842;8.926;2022-08-24T13:09:41;2.10;;;2.00;;
1400;SDS011;46518;48.842;8.926;2022-08-24T13:15:25;2.73;;;2.43;;
1400;SDS011;46518;48.842;8.926;2022-08-24T13:18:26;3.13;;;2.93;;
1400;SDS011;46518;48.842;8.926;2022-08-24T13:21:14;2.10;;;2.00;;
1400;SDS011;46518;48.842;8.926;2022-08-24T13:33:37;3.27;;;1.90;;
1400;SDS011;46518;48.842;8.926;2022-08-24T13:39:22;2.40;;;2.00;;
1400;SDS011;46518;48.842;8.926;2022-08-24T13:42:22;2.20;;;2.10;;
1400;SDS011;46518;48.842;8.926;2022-08-24T13:45:14;3.00;;;2.60;;
1400;SDS011;46518;48.842;8.926;2022-08-24T13:47:51;2.67;;;2.47;;
1400;SDS011;46518;48.842;8.926;2022-08-24T13:50:31;2.60;;;2.40;;
1400;SDS011;46518;48.842;8.926;2022-08-24T13:56:19;3.30;;;2.50;;
1400;SDS011;46518;48.842;8.926;2022-08-24T13:59:03;1.87;;;1.73;;
1400;SDS011;46518;48.842;8.926;2022-08-24T14:01:37;3.20;;;2.23;;
1400;SDS011;46518;48.842;8.926;2022-08-24T14:04:26;2.37;;;2.27;;
1400;SDS011;46518;48.842;8.926;2022-08-24T14:07:14;2.40;;;2.20;;
1400;SDS011;46518;48.842;8.926;2022-08-24T14:09:53;2.13;;;2.03;;
1400;SDS011;46518;48.842;8.926;2022-08-24T14:12:44;2.67;;;2.47;;
1400;SDS011;46518;48.842;8.926;2022-08-24T14:15:24;2.27;;;2.07;;
1400;SDS011;46518;48.842;8.926;2022-08-24T14:18:08;2.20;;;2.10;;
1400;SDS011;46518;48.842;8.926;2022-08-24T14:20:50;7.93;;;2.23;;
1400;SDS011;46518;48.842;8.926;2022-08-24T14:23:29;2.60;;;2.50;;
1400;SDS011;46518;48.842;8.926;2022-08-24T14:29:31;2.60;;;2.40;;
1400;SDS011;46518;48.842;8.926;2022-08-24T14:35:14;2.43;;;2.23;;
1400;SDS011;46518;48.842;8.926;2022-08-24T14:37:51;2.83;;;2.63;;
1400;SDS011;46518;48.842;8.926;2022-08-24T14:40:31;2.50;;;2.37;;
1400;SDS011;46518;48.842;8.926;2022-08-24T14:43:07;2.67;;;2.47;;
1400;SDS011;46518;48.842;8.926;2022-08-24T14:45:59;2.10;;;2.00;;
1400;SDS011;46518;48.842;8.926;2022-08-24T14:48:38;3.10;;;2.57;;
1400;SDS011;46518;48.842;8.926;2022-08-24T14:51:19;2.83;;;2.63;;
1400;SDS011;46518;48.842;8.926;2022-08-24T14:54:14;2.27;;;2.17;;
1400;SDS011;46518;48.842;8.926;2022-08-24T14:56:56;2.43;;;2.30;;
1400;SDS011;46518;48.842;8.926;2022-08-24T14:59:36;2.27;;;2.07;;
1400;SDS011;46518;48.842;8.926;2022-08-24T15:02:22;2.80;;;2.30;;
1400;SDS011;46518;48.842;8.926;2022-08-24T15:05:09;2.60;;;2.40;;
1400;SDS011;46518;48.842;8.926;2022-08-24T15:07:52;2.83;;;2.60;;
1400;SDS011;46518;48.842;8.926;2022-08-24T15:10:23;3.20;;;2.23;;
1400;SDS011;46518;48.842;8.926;2022-08-24T15:12:55;2.43;;;2.23;;
1400;SDS011;46518;48.842;8.926;2022-08-24T15:15:30;3.10;;;2.50;;
1400;SDS011;46518;48.842;8.926;2022-08-24T15:18:03;2.33;;;2.23;;
1400;SDS011;46518;48.842;8.926;2022-08-24T15:20:45;3.60;;;2.73;;
1400;SDS011;46518;48.842;8.926;2022-08-24T15:23:25;2.60;;;2.40;;
1400;SDS011;46518;48.842;8.926;2022-08-24T15:26:07;2.17;;;2.07;;
1400;SDS011;46518;48.842;8.926;2022-08-24T15:28:45;2.40;;;2.30;;
1400;SDS011;46518;48.842;8.926;2022-08-24T15:31:23;2.63;;;2.37;;
1400;SDS011;46518;48.842;8.926;2022-08-24T15:33:56;2.43;;;2.23;;
1400;SDS011;46518;48.842;8.926;2022-08-24T15:36:26;2.47;;;2.27;;
1400;SDS011;46518;48.842;8.926;2022-08-24T15:38:58;3.30;;;2.63;;
1400;SDS011;46518;48.842;8.926;2022-08-24T15:41:28;2.23;;;2.13;;
1400;SDS011;46518;48.842;8.926;2022-08-24T15:43:59;3.10;;;2.70;;
1400;SDS011;46518;48.842;8.926;2022-08-24T15:46:31;2.50;;;2.30;;
1400;SDS011;46518;48.842;8.926;2022-08-24T15:49:13;3.37;;;2.23;;
1400;SDS011;46518;48.842;8.926;2022-08-24T15:51:47;3.47;;;3.17;;
1400;SDS011;46518;48.842;8.926;2022-08-24T15:54:26;2.90;;;1.97;;
1400;SDS011;46518;48.842;8.926;2022-08-24T15:56:59;3.10;;;2.40;;
1400;SDS011;46518;48.842;8.926;2022-08-24T15:59:30;2.67;;;2.47;;
1400;SDS011;46518;48.842;8.926;2022-08-24T16:02:20;2.53;;;2.40;;
1400;SDS011;46518;48.842;8.926;2022-08-24T16:04:59;3.17;;;2.87;;
1400;SDS011;46518;48.842;8.926;2022-08-24T16:10:40;3.60;;;2.50;;
1400;SDS011;46518;48.842;8.926;2022-08-24T16:13:22;6.70;;;3.30;;
1400;SDS011;46518;48.842;8.926;2022-08-24T16:15:58;2.93;;;2.63;;
1400;SDS011;46518;48.842;8.926;2022-08-24T16:18:43;2.50;;;2.40;;
1400;SDS011;46518;48.842;8.926;2022-08-24T16:21:16;2.67;;;2.47;;
1400;SDS011;46518;48.842;8.926;2022-08-24T16:23:52;2.80;;;2.60;;
1400;SDS011;46518;48.842;8.926;2022-08-24T16:26:27;3.10;;;2.90;;
1400;SDS011;46518;48.842;8.926;2022-08-24T16:28:58;3.00;;;2.70;;
1400;SDS011;46518;48.842;8.926;2022-08-24T16:31:47;2.97;;;2.40;;
1400;SDS011;46518;48.842;8.926;2022-08-24T16:34:19;3.00;;;2.80;;
1400;SDS011;46518;48.842;8.926;2022-08-24T16:36:51;3.13;;;2.93;;
1400;SDS011;46518;48.842;8.926;2022-08-24T16:39:19;2.93;;;2.73;;
1400;SDS011;46518;48.842;8.926;2022-08-24T16:41:47;3.53;;;2.73;;